sensor_id;sensor_type;location;lat;lon;timestamp;pressure;altitude;pressure_sealevel;temperature;humidity
9784;BME280;4931;44.874;-1.092;2022-11-15T00:03:34;100839.84;;;11.41;100.00
9784;BME280;4931;44.874;-1.092;2022-11-15T00:08:19;100822.50;;;11.41;100.00
9784;BME280;4931;44.874;-1.092;2022-11-15T00:13:05;100825.56;;;11.34;100.00
9784;BME280;4931;44.874;-1.092;2022-11-15T00:17:53;100805.28;;;11.30;100.00
9784;BME280;4931;44.874;-1.092;2022-11-15T00:22:38;100793.16;;;11.36;100.00
9784;BME280;4931;44.874;-1.092;2022-11-15T00:27:23;100772.00;;;11.37;100.00
9784;BME280;4931;44.874;-1.092;2022-11-15T00:32:09;100759.16;;;11.32;100.00
9784;BME280;4931;44.874;-1.092;2022-11-15T00:36:57;100756.88;;;11.39;100.00
9784;BME280;4931;44.874;-1.092;2022-11-15T00:41:42;100732.97;;;11.40;100.00
9784;BME280;4931;44.874;-1.092;2022-11-15T00:46:27;100743.56;;;11.57;100.00
9784;BME280;4931;44.874;-1.092;2022-11-15T00:51:13;100719.47;;;11.49;100.00
9784;BME280;4931;44.874;-1.092;2022-11-15T00:56:00;100708.47;;;11.49;100.00
9784;BME280;4931;44.874;-1.092;2022-11-15T01:00:45;100693.09;;;11.48;100.00
9784;BME280;4931;44.874;-1.092;2022-11-15T01:05:31;100687.88;;;11.46;100.00
9784;BME280;4931;44.874;-1.092;2022-11-15T01:10:16;100677.22;;;11.39;100.00
9784;BME280;4931;44.874;-1.092;2022-11-15T01:15:05;100675.56;;;11.43;100.00
9784;BME280;4931;44.874;-1.092;2022-11-15T01:19:50;100667.34;;;11.38;100.00
9784;BME280;4931;44.874;-1.092;2022-11-15T01:24:35;100660.16;;;11.42;100.00
9784;BME280;4931;44.874;-1.092;2022-11-15T01:29:21;100655.25;;;11.39;100.00
9784;BME280;4931;44.874;-1.092;2022-11-15T01:34:08;100644.53;;;11.43;100.00
9784;BME280;4931;44.874;-1.092;2022-11-15T01:38:54;100625.09;;;11.34;100.00
9784;BME280;4931;44.874;-1.092;2022-11-15T01:43:39;100626.75;;;11.35;100.00
9784;BME280;4931;44.874;-1.092;2022-11-15T01:48:28;100624.03;;;11.30;100.00
9784;BME280;4931;44.874;-1.092;2022-11-15T01:53:21;100613.78;;;11.41;100.00
9784;BME280;4931;44.874;-1.092;2022-11-15T01:58:09;100603.75;;;11.26;100.00
9784;BME280;4931;44.874;-1.092;2022-11-15T02:02:54;100597.69;;;11.29;100.00
9784;BME280;4931;44.874;-1.092;2022-11-15T02:07:40;100583.94;;;11.29;100.00
9784;BME280;4931;44.874;-1.092;2022-11-15T02:12:28;100584.59;;;11.21;100.00
9784;BME280;4931;44.874;-1.092;2022-11-15T02:17:25;100570.25;;;11.24;100.00
9784;BME280;4931;44.874;-1.092;2022-11-15T02:22:24;100561.50;;;11.22;100.00
9784;BME280;4931;44.874;-1.092;2022-11-15T02:32:49;100539.31;;;11.18;100.00
9784;BME280;4931;44.874;-1.092;2022-11-15T02:37:42;100539.34;;;11.13;100.00
9784;BME280;4931;44.874;-1.092;2022-11-15T02:42:31;100535.53;;;11.09;100.00
9784;BME280;4931;44.874;-1.092;2022-11-15T02:47:32;100529.25;;;11.08;100.00
9784;BME280;4931;44.874;-1.092;2022-11-15T02:52:23;100514.47;;;10.99;100.00
9784;BME280;4931;44.874;-1.092;2022-11-15T02:57:13;100501.97;;;10.88;100.00
9784;BME280;4931;44.874;-1.092;2022-11-15T03:02:13;100487.72;;;10.86;100.00
9784;BME280;4931;44.874;-1.092;2022-11-15T03:07:09;100485.25;;;10.84;100.00
9784;BME280;4931;44.874;-1.092;2022-11-15T03:12:02;100470.09;;;10.92;100.00
9784;BME280;4931;44.874;-1.092;2022-11-15T03:16:54;100451.53;;;10.84;100.00
9784;BME280;4931;44.874;-1.092;2022-11-15T03:21:44;100439.50;;;10.79;100.00
9784;BME280;4931;44.874;-1.092;2022-11-15T03:26:31;100439.28;;;11.00;100.00
9784;BME280;4931;44.874;-1.092;2022-11-15T03:31:22;100447.56;;;10.95;100.00
9784;BME280;4931;44.874;-1.092;2022-11-15T03:36:33;100433.78;;;11.00;100.00
9784;BME280;4931;44.874;-1.092;2022-11-15T03:41:23;100428.34;;;10.95;100.00
9784;BME280;4931;44.874;-1.092;2022-11-15T03:46:13;100419.97;;;11.10;100.00
9784;BME280;4931;44.874;-1.092;2022-11-15T03:51:02;100411.38;;;10.93;100.00
9784;BME280;4931;44.874;-1.092;2022-11-15T03:55:48;100397.00;;;11.01;100.00
9784;BME280;4931;44.874;-1.092;2022-11-15T04:00:33;100385.34;;;10.90;100.00
9784;BME280;4931;44.874;-1.092;2022-11-15T04:05:19;100384.44;;;10.95;100.00
9784;BME280;4931;44.874;-1.092;2022-11-15T04:10:09;100387.28;;;10.85;100.00
9784;BME280;4931;44.874;-1.092;2022-11-15T04:14:54;100385.69;;;10.84;100.00
9784;BME280;4931;44.874;-1.092;2022-11-15T04:19:51;100369.78;;;10.80;100.00
9784;BME280;4931;44.874;-1.092;2022-11-15T04:24:49;100371.88;;;10.65;100.00
9784;BME280;4931;44.874;-1.092;2022-11-15T04:29:36;100356.47;;;10.69;100.00
9784;BME280;4931;44.874;-1.092;2022-11-15T04:34:22;100347.94;;;10.70;100.00
9784;BME280;4931;44.874;-1.092;2022-11-15T04:39:07;100337.56;;;10.67;100.00
9784;BME280;4931;44.874;-1.092;2022-11-15T04:43:52;100331.03;;;10.63;100.00
9784;BME280;4931;44.874;-1.092;2022-11-15T04:48:40;100330.44;;;10.66;100.00
9784;BME280;4931;44.874;-1.092;2022-11-15T04:53:25;100327.53;;;10.82;100.00
9784;BME280;4931;44.874;-1.092;2022-11-15T04:58:11;100330.31;;;10.76;100.00
9784;BME280;4931;44.874;-1.092;2022-11-15T05:02:56;100313.16;;;10.66;100.00
9784;BME280;4931;44.874;-1.092;2022-11-15T05:08:03;100306.53;;;10.72;100.00
9784;BME280;4931;44.874;-1.092;2022-11-15T05:12:48;100295.69;;;10.80;100.00
9784;BME280;4931;44.874;-1.092;2022-11-15T05:17:33;100285.38;;;10.96;100.00
9784;BME280;4931;44.874;-1.092;2022-11-15T05:22:18;100281.13;;;11.04;100.00
9784;BME280;4931;44.874;-1.092;2022-11-15T05:27:06;100276.84;;;10.98;100.00
9784;BME280;4931;44.874;-1.092;2022-11-15T05:31:51;100267.13;;;11.06;100.00
9784;BME280;4931;44.874;-1.092;2022-11-15T05:36:38;100284.72;;;11.05;100.00
9784;BME280;4931;44.874;-1.092;2022-11-15T05:41:30;100285.69;;;11.14;100.00
9784;BME280;4931;44.874;-1.092;2022-11-15T05:46:19;100278.03;;;11.30;100.00
9784;BME280;4931;44.874;-1.092;2022-11-15T05:51:06;100282.63;;;11.16;100.00
9784;BME280;4931;44.874;-1.092;2022-11-15T05:55:52;100281.25;;;11.37;100.00
9784;BME280;4931;44.874;-1.092;2022-11-15T06:00:37;100281.25;;;11.37;100.00
9784;BME280;4931;44.874;-1.092;2022-11-15T06:05:25;100277.97;;;11.35;100.00
9784;BME280;4931;44.874;-1.092;2022-11-15T06:10:10;100271.75;;;11.29;100.00
9784;BME280;4931;44.874;-1.092;2022-11-15T06:14:56;100269.44;;;11.56;100.00
9784;BME280;4931;44.874;-1.092;2022-11-15T06:19:41;100271.50;;;11.64;100.00
9784;BME280;4931;44.874;-1.092;2022-11-15T06:24:29;100258.69;;;11.40;100.00
9784;BME280;4931;44.874;-1.092;2022-11-15T06:29:14;100266.25;;;11.49;100.00
9784;BME280;4931;44.874;-1.092;2022-11-15T06:33:59;100250.66;;;11.44;100.00
9784;BME280;4931;44.874;-1.092;2022-11-15T06:38:45;100260.75;;;11.68;100.00
9784;BME280;4931;44.874;-1.092;2022-11-15T06:43:33;100259.16;;;11.81;100.00
9784;BME280;4931;44.874;-1.092;2022-11-15T06:48:18;100268.72;;;11.83;100.00
9784;BME280;4931;44.874;-1.092;2022-11-15T06:53:03;100268.06;;;11.72;100.00
9784;BME280;4931;44.874;-1.092;2022-11-15T06:57:49;100264.09;;;11.45;100.00
9784;BME280;4931;44.874;-1.092;2022-11-15T07:02:37;100260.81;;;11.43;100.00
9784;BME280;4931;44.874;-1.092;2022-11-15T07:07:22;100259.19;;;11.42;100.00
9784;BME280;4931;44.874;-1.092;2022-11-15T07:12:08;100261.66;;;11.44;100.00
9784;BME280;4931;44.874;-1.092;2022-11-15T07:16:53;100263.06;;;11.41;100.00
9784;BME280;4931;44.874;-1.092;2022-11-15T07:21:41;100269.59;;;11.45;100.00
9784;BME280;4931;44.874;-1.092;2022-11-15T07:26:26;100266.78;;;11.51;100.00
9784;BME280;4931;44.874;-1.092;2022-11-15T07:31:11;100266.09;;;11.59;100.00
9784;BME280;4931;44.874;-1.092;2022-11-15T07:35:59;100261.19;;;11.56;100.00
9784;BME280;4931;44.874;-1.092;2022-11-15T07:40:55;100266.66;;;11.75;100.00
9784;BME280;4931;44.874;-1.092;2022-11-15T07:45:42;100259.34;;;11.84;100.00
9784;BME280;4931;44.874;-1.092;2022-11-15T07:50:28;100260.84;;;11.76;100.00
9784;BME280;4931;44.874;-1.092;2022-11-15T07:55:14;100252.41;;;11.73;100.00
9784;BME280;4931;44.874;-1.092;2022-11-15T08:00:02;100242.56;;;11.86;100.00
9784;BME280;4931;44.874;-1.092;2022-11-15T08:04:48;100251.88;;;11.90;100.00
9784;BME280;4931;44.874;-1.092;2022-11-15T08:09:33;100260.78;;;11.82;100.00
9784;BME280;4931;44.874;-1.092;2022-11-15T08:14:18;100253.06;;;12.17;100.00
9784;BME280;4931;44.874;-1.092;2022-11-15T08:19:06;100254.00;;;12.26;100.00
9784;BME280;4931;44.874;-1.092;2022-11-15T08:23:52;100265.13;;;12.35;100.00
9784;BME280;4931;44.874;-1.092;2022-11-15T08:28:37;100262.84;;;12.37;100.00
9784;BME280;4931;44.874;-1.092;2022-11-15T08:33:22;100267.22;;;12.24;100.00
9784;BME280;4931;44.874;-1.092;2022-11-15T08:38:10;100256.03;;;12.34;100.00
9784;BME280;4931;44.874;-1.092;2022-11-15T08:42:56;100268.25;;;12.28;100.00
9784;BME280;4931;44.874;-1.092;2022-11-15T08:47:44;100270.31;;;12.36;100.00
9784;BME280;4931;44.874;-1.092;2022-11-15T08:52:35;100275.00;;;12.36;100.00
9784;BME280;4931;44.874;-1.092;2022-11-15T08:57:23;100273.97;;;12.45;100.00
9784;BME280;4931;44.874;-1.092;2022-11-15T09:02:11;100271.13;;;12.51;100.00
9784;BME280;4931;44.874;-1.092;2022-11-15T09:06:57;100266.00;;;12.30;100.00
9784;BME280;4931;44.874;-1.092;2022-11-15T09:11:42;100261.78;;;12.52;100.00
9784;BME280;4931;44.874;-1.092;2022-11-15T09:16:32;100261.34;;;12.58;100.00
9784;BME280;4931;44.874;-1.092;2022-11-15T09:21:17;100262.78;;;12.56;100.00
9784;BME280;4931;44.874;-1.092;2022-11-15T09:26:04;100233.84;;;12.31;100.00
9784;BME280;4931;44.874;-1.092;2022-11-15T09:30:49;100248.00;;;12.38;100.00
9784;BME280;4931;44.874;-1.092;2022-11-15T09:35:38;100236.38;;;12.27;100.00
9784;BME280;4931;44.874;-1.092;2022-11-15T09:40:23;100242.69;;;12.55;100.00
9784;BME280;4931;44.874;-1.092;2022-11-15T09:45:16;100247.91;;;12.57;100.00
9784;BME280;4931;44.874;-1.092;2022-11-15T09:50:09;100243.41;;;12.33;100.00
9784;BME280;4931;44.874;-1.092;2022-11-15T09:54:57;100252.16;;;12.35;100.00
9784;BME280;4931;44.874;-1.092;2022-11-15T09:59:49;100224.44;;;12.32;100.00
9784;BME280;4931;44.874;-1.092;2022-11-15T10:04:38;100207.25;;;12.26;100.00
9784;BME280;4931;44.874;-1.092;2022-11-15T10:09:26;100198.59;;;12.47;100.00
9784;BME280;4931;44.874;-1.092;2022-11-15T10:14:18;100190.44;;;12.41;100.00
9784;BME280;4931;44.874;-1.092;2022-11-15T10:19:09;100191.25;;;12.42;100.00
9784;BME280;4931;44.874;-1.092;2022-11-15T10:23:59;100213.34;;;12.78;100.00
9784;BME280;4931;44.874;-1.092;2022-11-15T10:28:44;100227.88;;;12.93;100.00
9784;BME280;4931;44.874;-1.092;2022-11-15T10:33:34;100227.25;;;12.96;100.00
9784;BME280;4931;44.874;-1.092;2022-11-15T10:38:20;100220.81;;;13.15;100.00
9784;BME280;4931;44.874;-1.092;2022-11-15T10:43:13;100221.72;;;13.10;100.00
9784;BME280;4931;44.874;-1.092;2022-11-15T10:48:20;100221.72;;;13.24;100.00
9784;BME280;4931;44.874;-1.092;2022-11-15T10:53:19;100226.50;;;13.18;100.00
9784;BME280;4931;44.874;-1.092;2022-11-15T10:58:20;100188.81;;;13.05;100.00
9784;BME280;4931;44.874;-1.092;2022-11-15T11:03:26;100170.38;;;13.05;100.00
9784;BME280;4931;44.874;-1.092;2022-11-15T11:08:24;100157.22;;;13.25;100.00
9784;BME280;4931;44.874;-1.092;2022-11-15T11:13:14;100140.59;;;13.53;100.00
9784;BME280;4931;44.874;-1.092;2022-11-15T11:18:06;100118.31;;;13.72;100.00
9784;BME280;4931;44.874;-1.092;2022-11-15T11:23:03;100129.75;;;13.88;100.00
9784;BME280;4931;44.874;-1.092;2022-11-15T11:28:00;100141.84;;;14.09;100.00
9784;BME280;4931;44.874;-1.092;2022-11-15T11:32:57;100133.22;;;14.02;100.00
9784;BME280;4931;44.874;-1.092;2022-11-15T11:37:49;100145.44;;;14.19;100.00
9784;BME280;4931;44.874;-1.092;2022-11-15T11:42:42;100149.69;;;14.25;100.00
9784;BME280;4931;44.874;-1.092;2022-11-15T11:47:35;100128.69;;;14.06;100.00
9784;BME280;4931;44.874;-1.092;2022-11-15T11:52:28;100108.31;;;14.34;100.00
9784;BME280;4931;44.874;-1.092;2022-11-15T11:57:21;100098.47;;;14.59;100.00
9784;BME280;4931;44.874;-1.092;2022-11-15T12:02:15;100084.19;;;14.57;100.00
9784;BME280;4931;44.874;-1.092;2022-11-15T12:07:10;100090.88;;;14.65;100.00
9784;BME280;4931;44.874;-1.092;2022-11-15T12:12:02;100100.47;;;14.67;100.00
9784;BME280;4931;44.874;-1.092;2022-11-15T12:16:51;100117.66;;;14.64;100.00
9784;BME280;4931;44.874;-1.092;2022-11-15T12:21:41;100106.66;;;14.82;100.00
9784;BME280;4931;44.874;-1.092;2022-11-15T12:26:33;100081.47;;;14.83;100.00
9784;BME280;4931;44.874;-1.092;2022-11-15T12:31:23;100080.97;;;14.90;100.00
9784;BME280;4931;44.874;-1.092;2022-11-15T12:36:11;100082.44;;;14.87;100.00
9784;BME280;4931;44.874;-1.092;2022-11-15T12:41:14;100081.78;;;15.08;100.00
9784;BME280;4931;44.874;-1.092;2022-11-15T12:46:05;100069.91;;;15.07;100.00
9784;BME280;4931;44.874;-1.092;2022-11-15T12:50:56;100058.22;;;15.10;100.00
9784;BME280;4931;44.874;-1.092;2022-11-15T12:55:41;100051.38;;;15.17;100.00
9784;BME280;4931;44.874;-1.092;2022-11-15T13:00:37;100053.34;;;15.07;100.00
9784;BME280;4931;44.874;-1.092;2022-11-15T13:06:08;100091.34;;;14.93;100.00
9784;BME280;4931;44.874;-1.092;2022-11-15T13:10:57;100103.00;;;14.55;100.00
9784;BME280;4931;44.874;-1.092;2022-11-15T13:15:53;100113.69;;;14.30;100.00
9784;BME280;4931;44.874;-1.092;2022-11-15T13:20:44;100100.97;;;14.11;100.00
9784;BME280;4931;44.874;-1.092;2022-11-15T13:25:55;100074.00;;;13.91;100.00
9784;BME280;4931;44.874;-1.092;2022-11-15T13:30:49;100089.09;;;13.93;100.00
9784;BME280;4931;44.874;-1.092;2022-11-15T13:35:38;100096.53;;;13.93;100.00
9784;BME280;4931;44.874;-1.092;2022-11-15T13:40:27;100092.00;;;13.57;100.00
9784;BME280;4931;44.874;-1.092;2022-11-15T13:45:17;100062.09;;;13.41;100.00
9784;BME280;4931;44.874;-1.092;2022-11-15T13:50:05;100035.75;;;13.35;100.00
9784;BME280;4931;44.874;-1.092;2022-11-15T13:54:57;100029.72;;;13.24;100.00
9784;BME280;4931;44.874;-1.092;2022-11-15T13:59:46;100028.78;;;13.06;100.00
9784;BME280;4931;44.874;-1.092;2022-11-15T14:04:37;100031.88;;;13.05;100.00
9784;BME280;4931;44.874;-1.092;2022-11-15T14:09:34;100028.94;;;13.01;100.00
9784;BME280;4931;44.874;-1.092;2022-11-15T14:14:21;100045.00;;;12.85;100.00
9784;BME280;4931;44.874;-1.092;2022-11-15T14:19:11;100063.59;;;12.79;100.00
9784;BME280;4931;44.874;-1.092;2022-11-15T14:24:17;100095.19;;;12.82;100.00
9784;BME280;4931;44.874;-1.092;2022-11-15T14:29:24;100097.25;;;12.76;100.00
9784;BME280;4931;44.874;-1.092;2022-11-15T14:34:09;100094.41;;;12.68;100.00
9784;BME280;4931;44.874;-1.092;2022-11-15T14:38:55;100071.34;;;12.77;100.00
9784;BME280;4931;44.874;-1.092;2022-11-15T14:43:43;100064.09;;;13.04;100.00
9784;BME280;4931;44.874;-1.092;2022-11-15T14:48:28;100074.41;;;12.76;100.00
9784;BME280;4931;44.874;-1.092;2022-11-15T14:53:15;100078.72;;;12.68;100.00
9784;BME280;4931;44.874;-1.092;2022-11-15T14:58:03;100090.84;;;12.67;100.00
9784;BME280;4931;44.874;-1.092;2022-11-15T15:02:53;100095.84;;;12.65;100.00
9784;BME280;4931;44.874;-1.092;2022-11-15T15:07:38;100081.47;;;12.68;100.00
9784;BME280;4931;44.874;-1.092;2022-11-15T15:12:24;100088.06;;;12.81;100.00
9784;BME280;4931;44.874;-1.092;2022-11-15T15:17:09;100110.88;;;12.82;100.00
9784;BME280;4931;44.874;-1.092;2022-11-15T15:21:57;100116.19;;;12.78;100.00
9784;BME280;4931;44.874;-1.092;2022-11-15T15:26:42;100099.19;;;12.76;100.00
9784;BME280;4931;44.874;-1.092;2022-11-15T15:31:27;100070.53;;;12.77;100.00
9784;BME280;4931;44.874;-1.092;2022-11-15T15:36:17;100038.44;;;12.72;100.00
9784;BME280;4931;44.874;-1.092;2022-11-15T15:41:08;100058.09;;;12.79;100.00
9784;BME280;4931;44.874;-1.092;2022-11-15T15:45:54;100057.34;;;12.88;100.00
9784;BME280;4931;44.874;-1.092;2022-11-15T15:50:39;100038.91;;;12.88;100.00
9784;BME280;4931;44.874;-1.092;2022-11-15T15:55:25;100034.06;;;12.94;100.00
9784;BME280;4931;44.874;-1.092;2022-11-15T16:00:14;100051.47;;;13.03;100.00
9784;BME280;4931;44.874;-1.092;2022-11-15T16:05:00;100054.72;;;13.05;100.00
9784;BME280;4931;44.874;-1.092;2022-11-15T16:09:46;100061.81;;;12.98;100.00
9784;BME280;4931;44.874;-1.092;2022-11-15T16:14:46;100057.09;;;12.98;100.00
9784;BME280;4931;44.874;-1.092;2022-11-15T16:19:34;100054.34;;;12.98;100.00
9784;BME280;4931;44.874;-1.092;2022-11-15T16:24:20;100059.03;;;12.98;100.00
9784;BME280;4931;44.874;-1.092;2022-11-15T16:29:05;100052.31;;;13.12;100.00
9784;BME280;4931;44.874;-1.092;2022-11-15T16:33:51;100057.59;;;13.00;100.00
9784;BME280;4931;44.874;-1.092;2022-11-15T16:38:39;100073.72;;;12.93;100.00
9784;BME280;4931;44.874;-1.092;2022-11-15T16:43:24;100067.97;;;13.03;100.00
9784;BME280;4931;44.874;-1.092;2022-11-15T16:48:18;100078.13;;;12.94;100.00
9784;BME280;4931;44.874;-1.092;2022-11-15T16:53:04;100092.25;;;13.01;100.00
9784;BME280;4931;44.874;-1.092;2022-11-15T16:57:52;100095.50;;;13.03;100.00
9784;BME280;4931;44.874;-1.092;2022-11-15T17:02:39;100111.63;;;12.96;100.00
9784;BME280;4931;44.874;-1.092;2022-11-15T17:07:24;100105.56;;;13.08;100.00
9784;BME280;4931;44.874;-1.092;2022-11-15T17:12:09;100104.53;;;12.95;100.00
9784;BME280;4931;44.874;-1.092;2022-11-15T17:16:58;100110.88;;;12.82;100.00
9784;BME280;4931;44.874;-1.092;2022-11-15T17:21:44;100118.34;;;12.67;100.00
9784;BME280;4931;44.874;-1.092;2022-11-15T17:26:30;100137.00;;;12.70;100.00
9784;BME280;4931;44.874;-1.092;2022-11-15T17:31:21;100140.78;;;12.74;100.00
9784;BME280;4931;44.874;-1.092;2022-11-15T17:36:10;100156.38;;;12.65;100.00
9784;BME280;4931;44.874;-1.092;2022-11-15T17:41:00;100156.22;;;12.48;100.00
9784;BME280;4931;44.874;-1.092;2022-11-15T17:45:46;100163.75;;;12.56;100.00
9784;BME280;4931;44.874;-1.092;2022-11-15T17:50:31;100179.44;;;12.41;100.00
9784;BME280;4931;44.874;-1.092;2022-11-15T17:55:19;100187.47;;;12.24;100.00
9784;BME280;4931;44.874;-1.092;2022-11-15T18:00:06;100205.88;;;12.09;100.00
9784;BME280;4931;44.874;-1.092;2022-11-15T18:04:51;100201.19;;;11.96;100.00
9784;BME280;4931;44.874;-1.092;2022-11-15T18:09:36;100193.28;;;12.08;100.00
9784;BME280;4931;44.874;-1.092;2022-11-15T18:14:28;100204.97;;;12.00;100.00
9784;BME280;4931;44.874;-1.092;2022-11-15T18:19:13;100207.03;;;12.08;100.00
9784;BME280;4931;44.874;-1.092;2022-11-15T18:24:00;100225.84;;;12.01;100.00
9784;BME280;4931;44.874;-1.092;2022-11-15T18:28:47;100216.09;;;12.09;100.00
9784;BME280;4931;44.874;-1.092;2022-11-15T18:33:35;100224.53;;;12.12;100.00
9784;BME280;4931;44.874;-1.092;2022-11-15T18:38:20;100226.28;;;12.08;100.00
9784;BME280;4931;44.874;-1.092;2022-11-15T18:43:05;100220.97;;;11.98;100.00
9784;BME280;4931;44.874;-1.092;2022-11-15T18:47:50;100219.91;;;11.94;100.00
9784;BME280;4931;44.874;-1.092;2022-11-15T18:52:38;100223.63;;;12.03;100.00
9784;BME280;4931;44.874;-1.092;2022-11-15T18:57:23;100218.56;;;11.91;100.00
9784;BME280;4931;44.874;-1.092;2022-11-15T19:02:10;100228.63;;;11.82;100.00
9784;BME280;4931;44.874;-1.092;2022-11-15T19:06:56;100238.38;;;11.74;100.00
9784;BME280;4931;44.874;-1.092;2022-11-15T19:11:45;100242.22;;;11.73;100.00
9784;BME280;4931;44.874;-1.092;2022-11-15T19:16:35;100251.53;;;11.58;100.00
9784;BME280;4931;44.874;-1.092;2022-11-15T19:21:20;100265.25;;;11.77;100.00
9784;BME280;4931;44.874;-1.092;2022-11-15T19:26:10;100264.97;;;11.60;100.00
9784;BME280;4931;44.874;-1.092;2022-11-15T19:31:05;100249.38;;;11.74;100.00
9784;BME280;4931;44.874;-1.092;2022-11-15T19:35:50;100245.88;;;11.69;100.00
9784;BME280;4931;44.874;-1.092;2022-11-15T19:40:35;100236.22;;;11.71;100.00
9784;BME280;4931;44.874;-1.092;2022-11-15T19:45:20;100231.06;;;11.84;100.00
9784;BME280;4931;44.874;-1.092;2022-11-15T19:50:09;100221.28;;;11.77;100.00
9784;BME280;4931;44.874;-1.092;2022-11-15T19:54:54;100234.31;;;11.86;100.00
9784;BME280;4931;44.874;-1.092;2022-11-15T19:59:39;100246.28;;;11.95;100.00
9784;BME280;4931;44.874;-1.092;2022-11-15T20:04:24;100249.38;;;11.74;100.00
9784;BME280;4931;44.874;-1.092;2022-11-15T20:09:15;100254.84;;;11.74;100.00
9784;BME280;4931;44.874;-1.092;2022-11-15T20:14:01;100264.22;;;11.73;100.00
9784;BME280;4931;44.874;-1.092;2022-11-15T20:18:49;100272.03;;;11.66;100.00
9784;BME280;4931;44.874;-1.092;2022-11-15T20:23:34;100279.38;;;11.71;100.00
9784;BME280;4931;44.874;-1.092;2022-11-15T20:28:25;100288.53;;;11.66;100.00
9784;BME280;4931;44.874;-1.092;2022-11-15T20:33:11;100293.31;;;11.74;100.00
9784;BME280;4931;44.874;-1.092;2022-11-15T20:37:58;100288.88;;;11.78;100.00
9784;BME280;4931;44.874;-1.092;2022-11-15T20:42:43;100287.00;;;11.74;100.00
9784;BME280;4931;44.874;-1.092;2022-11-15T20:47:31;100296.56;;;11.76;100.00
9784;BME280;4931;44.874;-1.092;2022-11-15T20:52:16;100302.25;;;11.66;100.00
9784;BME280;4931;44.874;-1.092;2022-11-15T20:57:02;100295.53;;;11.72;100.00
9784;BME280;4931;44.874;-1.092;2022-11-15T21:01:47;100287.38;;;11.67;100.00
9784;BME280;4931;44.874;-1.092;2022-11-15T21:06:35;100292.69;;;11.63;100.00
9784;BME280;4931;44.874;-1.092;2022-11-15T21:11:23;100300.63;;;11.65;100.00
9784;BME280;4931;44.874;-1.092;2022-11-15T21:16:21;100302.25;;;11.66;100.00
9784;BME280;4931;44.874;-1.092;2022-11-15T21:21:07;100297.25;;;11.68;100.00
9784;BME280;4931;44.874;-1.092;2022-11-15T21:25:54;100290.81;;;11.59;100.00
9784;BME280;4931;44.874;-1.092;2022-11-15T21:30:40;100305.28;;;11.65;100.00
9784;BME280;4931;44.874;-1.092;2022-11-15T21:35:25;100294.91;;;11.61;100.00
9784;BME280;4931;44.874;-1.092;2022-11-15T21:40:11;100301.00;;;11.58;100.00
9784;BME280;4931;44.874;-1.092;2022-11-15T21:44:59;100302.25;;;11.66;100.00
9784;BME280;4931;44.874;-1.092;2022-11-15T21:49:44;100288.22;;;11.68;100.00
9784;BME280;4931;44.874;-1.092;2022-11-15T21:54:29;100287.19;;;11.63;100.00
9784;BME280;4931;44.874;-1.092;2022-11-15T21:59:14;100290.59;;;11.74;100.00
9784;BME280;4931;44.874;-1.092;2022-11-15T22:04:03;100300.00;;;11.68;100.00
9784;BME280;4931;44.874;-1.092;2022-11-15T22:08:49;100301.66;;;11.69;100.00
9784;BME280;4931;44.874;-1.092;2022-11-15T22:13:34;100304.16;;;11.66;100.00
9784;BME280;4931;44.874;-1.092;2022-11-15T22:18:20;100311.59;;;11.65;100.00
9784;BME280;4931;44.874;-1.092;2022-11-15T22:23:10;100311.16;;;11.58;100.00
9784;BME280;4931;44.874;-1.092;2022-11-15T22:27:55;100298.97;;;11.64;100.00
9784;BME280;4931;44.874;-1.092;2022-11-15T22:32:40;100296.47;;;11.68;100.00
9784;BME280;4931;44.874;-1.092;2022-11-15T22:37:25;100294.50;;;11.68;100.00
9784;BME280;4931;44.874;-1.092;2022-11-15T22:42:13;100271.50;;;11.64;100.00
9784;BME280;4931;44.874;-1.092;2022-11-15T22:47:04;100268.69;;;11.69;100.00
9784;BME280;4931;44.874;-1.092;2022-11-15T22:51:49;100259.44;;;11.79;100.00
9784;BME280;4931;44.874;-1.092;2022-11-15T22:56:35;100259.75;;;11.77;100.00
9784;BME280;4931;44.874;-1.092;2022-11-15T23:01:22;100273.47;;;11.77;100.00
9784;BME280;4931;44.874;-1.092;2022-11-15T23:06:08;100282.56;;;11.78;100.00
9784;BME280;4931;44.874;-1.092;2022-11-15T23:10:53;100275.84;;;11.84;100.00
9784;BME280;4931;44.874;-1.092;2022-11-15T23:15:58;100281.00;;;11.72;100.00
9784;BME280;4931;44.874;-1.092;2022-11-15T23:21:07;100287.13;;;11.83;100.00
9784;BME280;4931;44.874;-1.092;2022-11-15T23:25:57;100296.81;;;11.99;100.00
9784;BME280;4931;44.874;-1.092;2022-11-15T23:30:43;100291.59;;;11.98;100.00
9784;BME280;4931;44.874;-1.092;2022-11-15T23:35:41;100300.72;;;11.93;100.00
9784;BME280;4931;44.874;-1.092;2022-11-15T23:40:29;100294.38;;;12.11;100.00
9784;BME280;4931;44.874;-1.092;2022-11-15T23:45:14;100302.63;;;12.11;100.00
9784;BME280;4931;44.874;-1.092;2022-11-15T23:49:59;100289.44;;;12.27;100.00
9784;BME280;4931;44.874;-1.092;2022-11-15T23:54:45;100289.59;;;12.17;100.00
9784;BME280;4931;44.874;-1.092;2022-11-15T23:59:32;100289.81;;;12.21;100.00
